createdAt,value
2022-09-05T00:02:34.854Z,101123.78
2022-09-05T00:05:21.638Z,101119.25
2022-09-05T00:08:00.413Z,101111.56
2022-09-05T00:11:03.421Z,101122.50
2022-09-05T00:13:30.223Z,101120.94
2022-09-05T00:16:32.051Z,101116.69
2022-09-05T00:23:52.935Z,101118.09
2022-09-05T00:24:37.160Z,101116.81
2022-09-05T00:25:31.401Z,101114.97
2022-09-05T00:28:26.124Z,101111.31
2022-09-05T00:31:55.940Z,101111.56
2022-09-05T00:34:18.074Z,101116.69
2022-09-05T00:36:50.643Z,101110.00
2022-09-05T00:39:26.239Z,101118.25
2022-09-05T00:41:59.684Z,101115.56
2022-09-05T00:44:32.983Z,101114.72
2022-09-05T00:47:09.657Z,101114.81
2022-09-05T00:49:45.107Z,101120.09
2022-09-05T00:52:20.425Z,101118.41
2022-09-05T00:55:12.699Z,101123.16
2022-09-05T00:57:58.842Z,101117.78
2022-09-05T01:00:38.900Z,101120.91
2022-09-05T01:03:33.487Z,101116.22
2022-09-05T01:06:16.561Z,101128.69
2022-09-05T01:09:22.094Z,101126.59
2022-09-05T01:12:05.765Z,101130.28
2022-09-05T01:14:51.914Z,101136.22
2022-09-05T01:17:36.852Z,101133.66
2022-09-05T01:20:19.884Z,101133.34
2022-09-05T01:23:08.409Z,101134.78
2022-09-05T01:25:54.806Z,101127.63
2022-09-05T01:29:17.388Z,101131.59
2022-09-05T01:31:32.739Z,101130.19
2022-09-05T01:34:10.004Z,101139.50
2022-09-05T01:37:04.982Z,101143.47
2022-09-05T01:40:15.475Z,101150.09
2022-09-05T01:42:42.448Z,101140.03
2022-09-05T01:45:21.979Z,101146.06
2022-09-05T01:48:04.905Z,101145.34
2022-09-05T01:50:44.894Z,101136.81
2022-09-05T01:53:27.706Z,101138.78
2022-09-05T01:56:16.269Z,101142.75
2022-09-05T01:58:59.220Z,101146.25
2022-09-05T02:01:42.196Z,101146.91
2022-09-05T02:04:36.646Z,101142.22
2022-09-05T02:07:22.542Z,101140.12
2022-09-05T02:10:19.639Z,101137.44
2022-09-05T02:12:59.746Z,101135.34
2022-09-05T02:15:41.949Z,101141.84
2022-09-05T02:18:23.179Z,101142.69
2022-09-05T02:20:57.780Z,101140.12
2022-09-05T02:23:44.621Z,101138.69
2022-09-05T02:26:19.735Z,101142.09
2022-09-05T02:28:54.976Z,101138.97
2022-09-05T02:31:30.180Z,101144.59
2022-09-05T02:34:04.867Z,101142.19
2022-09-05T02:36:39.867Z,101140.62
2022-09-05T02:45:01.614Z,101135.09
2022-09-05T02:45:20.340Z,101140.47
2022-09-05T02:45:28.310Z,101138.91
2022-09-05T02:48:14.817Z,101139.75
2022-09-05T02:57:27.799Z,101136.34
2022-09-05T02:57:35.413Z,101138.06
2022-09-05T02:57:45.326Z,101133.66
2022-09-05T02:59:54.886Z,101132.91
2022-09-05T03:02:30.399Z,101124.41
2022-09-05T03:05:06.598Z,101128.22
2022-09-05T03:08:03.020Z,101127.47
2022-09-05T03:11:06.910Z,101133.00
2022-09-05T03:14:12.100Z,101133.00
2022-09-05T03:17:08.632Z,101135.44
2022-09-05T03:20:26.075Z,101135.69
2022-09-05T03:23:28.238Z,101141.22
2022-09-05T03:26:34.158Z,101132.69
2022-09-05T03:29:33.971Z,101128.69
2022-09-05T03:32:48.972Z,101132.88
2022-09-05T03:35:56.821Z,101142.88
2022-09-05T03:38:59.152Z,101142.16
2022-09-05T03:41:40.587Z,101138.75
2022-09-05T03:44:35.865Z,101143.19
2022-09-05T03:47:32.607Z,101137.69
2022-09-05T03:53:35.568Z,101147.84
2022-09-05T03:57:10.994Z,101148.63
2022-09-05T03:57:13.961Z,101150.66
2022-09-05T04:00:07.801Z,101146.44
2022-09-05T04:08:09.353Z,101148.53
2022-09-05T04:08:24.859Z,101148.66
2022-09-05T04:08:49.028Z,101157.50
2022-09-05T04:11:20.731Z,101152.34
2022-09-05T04:13:54.474Z,101158.00
2022-09-05T04:16:26.961Z,101155.56
2022-09-05T04:19:08.124Z,101161.91
2022-09-05T04:21:44.378Z,101163.50
2022-09-05T04:24:18.842Z,101154.22
2022-09-05T04:27:14.792Z,101158.59
2022-09-05T04:29:55.383Z,101160.69
2022-09-05T04:32:35.241Z,101163.63
2022-09-05T04:35:16.682Z,101155.44
2022-09-05T04:37:53.399Z,101160.94
2022-09-05T04:40:38.622Z,101159.97
2022-09-05T04:43:09.088Z,101167.88
2022-09-05T04:45:42.486Z,101170.22
2022-09-05T04:48:14.968Z,101174.84
2022-09-05T04:51:01.956Z,101176.09
2022-09-05T04:53:40.590Z,101181.34
2022-09-05T04:56:16.036Z,101173.88
2022-09-05T05:00:08.981Z,101187.81
2022-09-05T05:06:08.548Z,101186.66
2022-09-05T05:06:11.039Z,101179.22
2022-09-05T05:07:28.878Z,101187.88
2022-09-05T05:10:33.301Z,101196.16
2022-09-05T05:17:59.035Z,101189.41
2022-09-05T05:18:03.359Z,101192.56
2022-09-05T05:18:59.557Z,101192.66
2022-09-05T05:21:33.390Z,101199.59
2022-09-05T05:24:11.706Z,101202.34
2022-09-05T05:26:56.977Z,101203.16
2022-09-05T05:29:37.053Z,101205.31
2022-09-05T05:32:08.139Z,101205.25
2022-09-05T05:34:44.393Z,101210.97
2022-09-05T05:37:20.610Z,101210.44
2022-09-05T05:39:59.108Z,101212.19
2022-09-05T05:42:27.404Z,101224.41
2022-09-05T05:44:58.762Z,101223.28
2022-09-05T05:47:32.680Z,101221.03
2022-09-05T05:50:11.252Z,101228.75
2022-09-05T05:53:28.932Z,101228.22
2022-09-05T05:56:31.542Z,101230.78
2022-09-05T05:59:22.624Z,101233.06
2022-09-05T06:02:30.458Z,101233.13
2022-09-05T06:05:32.174Z,101232.88
2022-09-05T06:10:31.809Z,101231.78
2022-09-05T06:14:52.102Z,101233.63
2022-09-05T06:15:10.650Z,101233.22
2022-09-05T06:18:11.596Z,101238.06
2022-09-05T06:22:11.513Z,101241.38
2022-09-05T06:24:41.172Z,101248.53
2022-09-05T06:27:34.868Z,101240.31
2022-09-05T06:30:17.173Z,101239.88
2022-09-05T06:33:06.267Z,101230.69
2022-09-05T06:35:47.762Z,101228.41
2022-09-05T06:38:31.319Z,101231.81
2022-09-05T06:41:22.833Z,101229.53
2022-09-05T06:44:23.950Z,101226.41
2022-09-05T06:47:22.729Z,101233.37
2022-09-05T06:50:27.539Z,101230.97
2022-09-05T06:53:27.239Z,101237.37
2022-09-05T06:56:25.483Z,101233.66
2022-09-05T06:59:24.783Z,101228.81
2022-09-05T07:02:00.683Z,101233.31
2022-09-05T07:05:23.529Z,101234.41
2022-09-05T07:07:35.718Z,101234.22
2022-09-05T07:10:34.681Z,101229.91
2022-09-05T07:13:07.254Z,101233.69
2022-09-05T07:15:43.176Z,101239.91
2022-09-05T07:18:18.033Z,101232.56
2022-09-05T07:21:12.287Z,101238.09
2022-09-05T07:24:08.997Z,101244.13
2022-09-05T07:26:52.202Z,101235.50
2022-09-05T07:29:30.011Z,101240.06
2022-09-05T07:32:01.831Z,101239.56
2022-09-05T07:34:31.677Z,101237.63
2022-09-05T07:37:15.115Z,101238.78
2022-09-05T07:39:50.867Z,101249.12
2022-09-05T07:42:26.505Z,101242.59
2022-09-05T07:44:59.293Z,101247.28
2022-09-05T07:47:31.908Z,101252.91
2022-09-05T07:50:27.918Z,101255.88
2022-09-05T07:56:51.731Z,101254.28
2022-09-05T07:57:01.707Z,101254.03
2022-09-05T07:58:39.938Z,101249.84
2022-09-05T08:01:10.269Z,101248.84
2022-09-05T08:03:38.479Z,101249.25
2022-09-05T08:06:10.456Z,101247.78
2022-09-05T08:09:18.537Z,101244.53
2022-09-05T08:11:40.705Z,101247.94
2022-09-05T08:14:44.713Z,101245.53
2022-09-05T08:17:16.030Z,101246.25
2022-09-05T08:20:08.354Z,101240.13
2022-09-05T08:22:48.010Z,101241.94
2022-09-05T08:25:28.755Z,101245.84
2022-09-05T08:28:20.907Z,101241.91
2022-09-05T08:30:58.074Z,101243.78
2022-09-05T08:33:33.324Z,101234.50
2022-09-05T08:36:08.786Z,101237.75
2022-09-05T08:38:41.218Z,101232.41
2022-09-05T08:41:17.643Z,101235.41
2022-09-05T08:46:38.032Z,101237.19
2022-09-05T08:46:53.074Z,101231.28
2022-09-05T08:49:49.776Z,101231.50
2022-09-05T08:52:31.502Z,101225.75
2022-09-05T08:55:11.326Z,101224.84
2022-09-05T08:58:05.893Z,101225.53
2022-09-05T09:00:41.795Z,101225.94
2022-09-05T09:03:25.833Z,101217.06
2022-09-05T09:06:21.703Z,101221.41
2022-09-05T09:09:18.361Z,101209.91
2022-09-05T09:11:54.388Z,101211.53
2022-09-05T09:14:39.503Z,101206.09
2022-09-05T09:17:24.303Z,101202.78
2022-09-05T09:20:11.607Z,101206.34
2022-09-05T09:22:44.653Z,101206.66
2022-09-05T09:25:17.819Z,101202.22
2022-09-05T09:28:45.153Z,101199.34
2022-09-05T09:30:59.135Z,101200.16
2022-09-05T09:33:37.840Z,101190.75
2022-09-05T09:36:20.481Z,101189.09
2022-09-05T09:39:21.528Z,101193.94
2022-09-05T09:42:14.946Z,101190.72
2022-09-05T09:45:27.757Z,101188.47
2022-09-05T09:48:46.728Z,101187.56
2022-09-05T09:51:36.683Z,101196.16
2022-09-05T09:54:44.219Z,101191.16
2022-09-05T09:58:01.121Z,101181.56
2022-09-05T10:00:45.779Z,101186.25
2022-09-05T10:09:37.003Z,101188.41
2022-09-05T10:10:45.542Z,101194.13
2022-09-05T10:10:49.032Z,101182.41
2022-09-05T10:13:31.004Z,101177.59
2022-09-05T10:16:24.015Z,101177.16
2022-09-05T10:19:13.924Z,101168.09
2022-09-05T10:25:19.473Z,101162.50
2022-09-05T10:28:07.219Z,101159.59
2022-09-05T10:33:21.304Z,101162.34
2022-09-05T10:35:19.764Z,101153.31
2022-09-05T10:36:32.509Z,101158.81
2022-09-05T10:39:15.322Z,101147.41
2022-09-05T10:41:50.010Z,101150.59
2022-09-05T10:44:29.182Z,101149.78
2022-09-05T10:47:07.737Z,101146.22
2022-09-05T10:49:43.606Z,101139.06
2022-09-05T10:52:18.401Z,101137.59
2022-09-05T10:55:14.634Z,101129.75
2022-09-05T10:57:57.703Z,101128.28
2022-09-05T11:02:21.038Z,101132.50
2022-09-05T11:03:50.232Z,101134.81
2022-09-05T11:06:24.697Z,101124.28
2022-09-05T11:09:05.047Z,101121.97
2022-09-05T11:11:46.097Z,101130.59
2022-09-05T11:14:42.781Z,101109.94
2022-09-05T11:17:18.915Z,101121.53
2022-09-05T11:19:58.460Z,101118.28
2022-09-05T11:22:35.780Z,101113.22
2022-09-05T11:25:10.919Z,101105.41
2022-09-05T11:27:46.011Z,101109.22
2022-09-05T11:30:30.123Z,101104.34
2022-09-05T11:39:47.374Z,101106.19
2022-09-05T11:39:55.488Z,101108.06
2022-09-05T11:40:05.888Z,101107.81
2022-09-05T11:42:21.968Z,101092.62
2022-09-05T11:45:21.888Z,101096.34
2022-09-05T11:48:23.159Z,101093.69
2022-09-05T11:51:33.301Z,101092.00
2022-09-05T11:54:23.555Z,101091.75
2022-09-05T11:57:32.877Z,101089.88
2022-09-05T12:00:31.168Z,101090.44
2022-09-05T12:03:57.802Z,101091.22
2022-09-05T12:06:56.300Z,101088.81
2022-09-05T12:09:37.530Z,101080.44
2022-09-05T12:12:41.385Z,101086.19
2022-09-05T12:15:28.406Z,101081.72
2022-09-05T12:18:18.833Z,101075.75
2022-09-05T12:21:02.991Z,101074.47
2022-09-05T12:24:11.606Z,101078.56
2022-09-05T12:27:42.788Z,101074.13
2022-09-05T12:29:40.035Z,101066.41
2022-09-05T12:33:58.449Z,101060.16
2022-09-05T12:36:07.464Z,101068.66
2022-09-05T12:40:38.185Z,101058.03
2022-09-05T12:41:43.318Z,101051.69
2022-09-05T12:44:41.082Z,101055.03
2022-09-05T12:47:17.009Z,101042.00
2022-09-05T12:50:03.505Z,101050.66
2022-09-05T12:52:46.311Z,101049.28
2022-09-05T12:55:26.590Z,101045.78
2022-09-05T13:01:23.417Z,101047.09
2022-09-05T13:03:11.872Z,101050.16
2022-09-05T13:04:15.822Z,101050.47
2022-09-05T13:06:40.792Z,101045.16
2022-09-05T13:09:11.608Z,101045.25
2022-09-05T13:14:50.749Z,101046.94
2022-09-05T13:15:07.985Z,101047.66
2022-09-05T13:17:45.215Z,101035.88
2022-09-05T13:20:21.659Z,101030.63
2022-09-05T13:22:52.691Z,101035.06
2022-09-05T13:25:27.012Z,101033.22
2022-09-05T13:28:01.595Z,101032.53
2022-09-05T13:33:11.824Z,101033.84
2022-09-05T13:38:08.170Z,101032.38
2022-09-05T13:38:20.786Z,101024.56
2022-09-05T13:39:06.357Z,101026.34
2022-09-05T13:41:43.121Z,101028.41
2022-09-05T13:44:25.761Z,101020.37
2022-09-05T13:47:02.039Z,101016.75
2022-09-05T13:49:53.525Z,101007.53
2022-09-05T13:52:31.292Z,101016.63
2022-09-05T13:55:13.044Z,101013.81
2022-09-05T13:57:45.590Z,101013.66
2022-09-05T14:00:53.250Z,101013.19
2022-09-05T14:03:40.698Z,101006.03
2022-09-05T14:06:47.639Z,101009.03
2022-09-05T14:09:37.159Z,101003.09
2022-09-05T14:12:12.491Z,101004.41
2022-09-05T14:17:56.099Z,100985.19
2022-09-05T14:20:49.723Z,100982.34
2022-09-05T14:23:21.009Z,100988.94
2022-09-05T14:25:53.008Z,100976.63
2022-09-05T14:28:27.662Z,100975.84
2022-09-05T14:36:10.949Z,100969.94
2022-09-05T14:37:41.495Z,100971.31
2022-09-05T14:37:54.946Z,100972.84
2022-09-05T14:40:43.388Z,100966.59
2022-09-05T14:43:42.012Z,100959.63
2022-09-05T14:46:39.287Z,100956.66
2022-09-05T14:49:36.288Z,100954.81
2022-09-05T14:52:18.834Z,100947.44
2022-09-05T15:02:43.485Z,100941.78
2022-09-05T15:02:46.049Z,100942.72
2022-09-05T15:06:32.750Z,100939.63
2022-09-05T15:12:01.008Z,100936.78
2022-09-05T15:12:26.039Z,100932.44
2022-09-05T15:14:50.525Z,100933.22
2022-09-05T15:17:23.516Z,100943.38
2022-09-05T15:20:06.202Z,100942.00
2022-09-05T15:22:37.284Z,100941.69
2022-09-05T15:25:25.757Z,100939.19
2022-09-05T15:27:55.692Z,100935.13
2022-09-05T15:30:35.191Z,100935.72
2022-09-05T15:33:14.396Z,100938.59
2022-09-05T15:35:43.996Z,100933.22
2022-09-05T15:38:23.487Z,100930.69
2022-09-05T15:41:10.967Z,100938.59
2022-09-05T15:43:51.432Z,100933.41
2022-09-05T15:46:29.456Z,100941.81
2022-09-05T15:48:59.527Z,100938.94
2022-09-05T15:51:42.160Z,100947.06
2022-09-05T15:54:37.344Z,100945.16
2022-09-05T15:57:15.286Z,100950.72
2022-09-05T15:59:49.313Z,100946.56
2022-09-05T16:02:21.975Z,100944.28
2022-09-05T16:10:34.485Z,100944.94
2022-09-05T16:10:42.034Z,100944.88
2022-09-05T16:11:09.973Z,100956.88
2022-09-05T16:13:52.422Z,100947.28
2022-09-05T16:23:11.585Z,100949.97
2022-09-05T16:23:26.369Z,100955.19
2022-09-05T16:23:28.412Z,100946.25
2022-09-05T16:25:02.880Z,100946.78
2022-09-05T16:27:43.552Z,100948.66
2022-09-05T16:30:21.890Z,100941.50
2022-09-05T16:32:54.728Z,100940.25
2022-09-05T16:35:26.227Z,100938.59
2022-09-05T16:38:06.623Z,100940.06
2022-09-05T16:40:38.944Z,100944.47
2022-09-05T16:43:12.200Z,100938.19
2022-09-05T16:45:49.715Z,100933.91
2022-09-05T16:48:30.283Z,100944.47
2022-09-05T16:51:13.327Z,100938.97
2022-09-05T16:53:58.971Z,100936.25
2022-09-05T16:56:33.076Z,100933.69
2022-09-05T16:59:04.756Z,100935.78
2022-09-05T17:01:54.811Z,100936.97
2022-09-05T17:05:03.427Z,100940.06
2022-09-05T17:07:44.715Z,100937.97
2022-09-05T17:10:18.083Z,100938.94
2022-09-05T17:12:46.569Z,100929.25
2022-09-05T17:15:17.494Z,100929.19
2022-09-05T17:18:21.652Z,100928.72
2022-09-05T17:20:49.534Z,100915.63
2022-09-05T17:29:16.775Z,100921.81
2022-09-05T17:29:17.231Z,100925.19
2022-09-05T17:30:21.943Z,100925.84
2022-09-05T17:32:01.806Z,100923.69
2022-09-05T17:34:49.550Z,100921.75
2022-09-05T17:37:39.203Z,100926.47
2022-09-05T17:40:32.312Z,100925.97
2022-09-05T17:43:04.530Z,100925.16
2022-09-05T17:45:44.928Z,100931.59
2022-09-05T17:48:16.615Z,100927.88
2022-09-05T17:50:53.949Z,100934.97
2022-09-05T17:53:24.931Z,100934.16
2022-09-05T17:56:33.065Z,100936.91
2022-09-05T17:59:07.383Z,100932.66
2022-09-05T18:01:36.908Z,100937.22
2022-09-05T18:04:15.905Z,100944.25
2022-09-05T18:06:59.503Z,100942.66
2022-09-05T18:13:13.024Z,100951.87
2022-09-05T18:16:11.868Z,100957.31
2022-09-05T18:19:32.574Z,100954.97
2022-09-05T18:21:49.746Z,100958.22
2022-09-05T18:24:33.506Z,100960.94
2022-09-05T18:28:03.920Z,100973.63
2022-09-05T18:30:06.487Z,100964.31
2022-09-05T18:32:39.694Z,100968.66
2022-09-05T18:35:37.497Z,100965.44
2022-09-05T18:38:51.312Z,100963.75
2022-09-05T18:41:23.003Z,100967.88
2022-09-05T18:44:12.137Z,100972.72
2022-09-05T18:46:45.771Z,100972.59
2022-09-05T18:50:21.525Z,100961.59
2022-09-05T18:52:17.130Z,100970.13
2022-09-05T18:56:09.628Z,100967.12
2022-09-05T18:57:51.945Z,100973.44
2022-09-05T19:00:46.941Z,100975.19
2022-09-05T19:03:19.679Z,100975.75
2022-09-05T19:06:35.076Z,100973.38
2022-09-05T19:08:52.042Z,100970.41
2022-09-05T19:11:28.938Z,100964.12
2022-09-05T19:14:25.648Z,100973.00
2022-09-05T19:16:49.685Z,100969.81
2022-09-05T19:19:20.692Z,100966.41
2022-09-05T19:22:39.514Z,100975.16
2022-09-05T19:25:00.258Z,100969.03
2022-09-05T19:33:50.486Z,100973.63
2022-09-05T19:37:08.359Z,100969.97
2022-09-05T19:37:13.758Z,100966.34
2022-09-05T19:37:22.289Z,100962.47
2022-09-05T19:43:07.423Z,100965.72
2022-09-05T19:47:27.505Z,100970.00
2022-09-05T19:47:43.283Z,100957.62
2022-09-05T19:48:35.618Z,100962.72
2022-09-05T19:51:17.260Z,100973.75
2022-09-05T19:53:48.871Z,100968.69
2022-09-05T19:56:39.644Z,100959.00
2022-09-05T19:59:19.397Z,100967.69
2022-09-05T20:01:52.038Z,100975.53
2022-09-05T20:04:21.946Z,100975.38
2022-09-05T20:06:59.989Z,100973.88
2022-09-05T20:09:31.320Z,100979.13
2022-09-05T20:12:19.810Z,100973.50
2022-09-05T20:14:56.203Z,100968.78
2022-09-05T20:17:29.619Z,100967.41
2022-09-05T20:20:12.335Z,100974.22
2022-09-05T20:23:03.291Z,100980.00
2022-09-05T20:25:37.086Z,100979.31
2022-09-05T20:28:10.297Z,100974.25
2022-09-05T20:30:43.412Z,100977.62
2022-09-05T20:33:24.157Z,100976.28
2022-09-05T20:42:15.731Z,100976.94
2022-09-05T20:43:21.746Z,100982.37
2022-09-05T20:43:24.929Z,100973.06
2022-09-05T20:45:43.443Z,100970.19
2022-09-05T20:53:08.366Z,100978.69
2022-09-05T20:54:15.845Z,100973.75
2022-09-05T20:54:28.949Z,100969.81
2022-09-05T20:56:48.023Z,100975.75
2022-09-05T20:59:26.202Z,100966.25
2022-09-05T21:02:03.204Z,100961.69
2022-09-05T21:04:35.774Z,100970.31
2022-09-05T21:07:23.835Z,100972.50
2022-09-05T21:09:55.059Z,100969.78
2022-09-05T21:12:27.926Z,100963.69
2022-09-05T21:15:20.517Z,100960.28
2022-09-05T21:17:53.579Z,100965.38
2022-09-05T21:20:25.426Z,100966.72
2022-09-05T21:22:53.324Z,100960.28
2022-09-05T21:25:26.047Z,100962.16
2022-09-05T21:28:24.551Z,100963.66
2022-09-05T21:31:12.854Z,100955.16
2022-09-05T21:33:45.476Z,100968.31
2022-09-05T21:36:16.413Z,100965.13
2022-09-05T21:38:45.343Z,100960.00
2022-09-05T21:41:16.994Z,100957.28
2022-09-05T21:47:35.736Z,100961.31
2022-09-05T21:47:47.981Z,100958.09
2022-09-05T21:49:25.949Z,100958.09
2022-09-05T21:51:55.537Z,100958.75
2022-09-05T21:59:16.463Z,100949.25
2022-09-05T21:59:26.795Z,100945.87
2022-09-05T22:00:11.004Z,100943.28
2022-09-05T22:02:48.964Z,100944.63
2022-09-05T22:05:17.509Z,100937.84
2022-09-05T22:07:48.555Z,100939.69
2022-09-05T22:10:16.735Z,100940.84
2022-09-05T22:12:44.905Z,100927.66
2022-09-05T22:15:27.938Z,100927.12
2022-09-05T22:18:16.856Z,100936.56
2022-09-05T22:20:57.227Z,100931.16
2022-09-05T22:23:39.676Z,100925.19
2022-09-05T22:26:07.904Z,100921.97
2022-09-05T22:28:46.347Z,100922.59
2022-09-05T22:31:14.540Z,100925.47
2022-09-05T22:33:42.595Z,100920.06
2022-09-05T22:36:10.783Z,100918.53
2022-09-05T22:38:43.253Z,100916.13
2022-09-05T22:41:11.337Z,100913.75
2022-09-05T22:43:41.054Z,100911.53
2022-09-05T22:46:09.078Z,100904.06
2022-09-05T22:48:38.535Z,100908.63
2022-09-05T22:51:07.564Z,100913.97
2022-09-05T22:53:35.523Z,100909.75
2022-09-05T22:56:07.850Z,100905.34
2022-09-05T22:58:41.078Z,100910.34
2022-09-05T23:01:09.547Z,100905.59
2022-09-05T23:03:37.948Z,100901.34
2022-09-05T23:06:07.754Z,100908.75
2022-09-05T23:08:35.930Z,100900.66
2022-09-05T23:11:09.367Z,100908.06
2022-09-05T23:13:37.423Z,100912.81
2022-09-05T23:16:06.358Z,100909.41
2022-09-05T23:18:34.731Z,100917.97
2022-09-05T23:21:03.175Z,100915.28
2022-09-05T23:23:31.526Z,100905.91
2022-09-05T23:26:01.184Z,100908.91
2022-09-05T23:28:30.623Z,100900.44
2022-09-05T23:31:00.690Z,100897.91
2022-09-05T23:33:29.403Z,100898.75
2022-09-05T23:36:00.224Z,100900.72
2022-09-05T23:38:29.000Z,100895.97
2022-09-05T23:41:01.302Z,100895.75
2022-09-05T23:43:31.120Z,100891.81
2022-09-05T23:45:59.405Z,100887.44
2022-09-05T23:48:28.105Z,100890.41
2022-09-05T23:50:56.808Z,100890.72
2022-09-05T23:53:24.883Z,100879.41
2022-09-05T23:55:52.740Z,100874.28
2022-09-05T23:58:21.035Z,100861.56
